Time;durP1;ratioP1;P1;durP2;ratioP2;P2;SDS_P1;SDS_P2;PMS_P1;PMS_P2;Temp;Humidity;BMP_temperature;BMP_pressure;BME280_temperature;BME280_humidity;BME280_pressure;Samples;Min_cycle;Max_cycle;Signal;HPM_P1;HPM_P2
2022/09/01 00:01:26;;;;;;;6.55;1.58;;;20.50;96.50;;;;;;5058942;28;20086;-78
2022/09/01 00:03:54;;;;;;;5.95;1.60;;;20.50;96.30;;;;;;5057875;28;20024;-78
2022/09/01 00:06:22;;;;;;;3.63;1.70;;;20.40;96.50;;;;;;5059053;28;20048;-78
2022/09/01 00:08:54;;;;;;;6.30;2.05;;;20.30;96.60;;;;;;5058516;28;20440;-77
2022/09/01 00:11:21;;;;;;;6.07;1.98;;;20.20;96.70;;;;;;5057904;28;20500;-77
2022/09/01 00:13:48;;;;;;;7.60;2.20;;;20.20;96.90;;;;;;5058954;28;20108;-78
2022/09/01 00:16:16;;;;;;;7.57;1.50;;;20.10;97.10;;;;;;5058777;28;20504;-78
2022/09/01 00:18:48;;;;;;;7.80;2.05;;;20.20;96.80;;;;;;5057479;28;20492;-78
2022/09/01 00:21:19;;;;;;;5.13;1.80;;;20.20;96.80;;;;;;5059013;28;20062;-78
2022/09/01 00:23:46;;;;;;;5.20;1.73;;;19.90;96.80;;;;;;5058575;28;20108;-78
2022/09/01 00:26:12;;;;;;;3.35;1.80;;;19.80;97.20;;;;;;5059001;28;20025;-78
2022/09/01 00:28:39;;;;;;;5.68;1.75;;;20.00;97.10;;;;;;5058772;28;20036;-78
2022/09/01 00:31:06;;;;;;;7.30;1.90;;;20.20;96.30;;;;;;5057573;28;20462;-78
2022/09/01 00:33:37;;;;;;;6.88;2.08;;;19.90;96.40;;;;;;5058702;28;20055;-78
2022/09/01 00:36:04;;;;;;;21.05;2.17;;;19.90;96.20;;;;;;5044837;28;20069;-78
2022/09/01 00:38:30;;;;;;;5.90;1.65;;;19.90;96.30;;;;;;5058857;28;20017;-78
2022/09/01 00:40:56;;;;;;;8.18;1.80;;;20.00;96.40;;;;;;5058618;28;20025;-78
2022/09/01 00:43:44;;;;;;;11.35;1.75;;;19.90;96.30;;;;;;5057671;28;20013;-78
2022/09/01 00:46:17;;;;;;;6.65;1.92;;;19.50;96.80;;;;;;5073977;28;20108;-79
2022/09/01 00:48:44;;;;;;;6.57;2.25;;;19.60;96.50;;;;;;5074232;28;20047;-79
2022/09/01 00:51:12;;;;;;;7.25;1.88;;;19.50;97.00;;;;;;5056961;28;20014;-79
2022/09/01 00:53:40;;;;;;;13.93;2.05;;;19.40;97.20;;;;;;5057598;28;20055;-78
2022/09/01 00:56:07;;;;;;;9.45;1.83;;;19.40;96.70;;;;;;5058126;28;20409;-78
2022/09/01 00:58:35;;;;;;;6.78;1.73;;;19.60;96.70;;;;;;5058622;28;20025;-78
2022/09/01 01:01:03;;;;;;;5.95;2.25;;;19.50;96.40;;;;;;5057588;28;20436;-78
2022/09/01 01:03:29;;;;;;;7.28;1.60;;;19.60;96.20;;;;;;5053990;28;20028;-78
2022/09/01 01:05:57;;;;;;;4.07;1.65;;;19.30;96.40;;;;;;5070503;28;20051;-78
2022/09/01 01:08:33;;;;;;;10.63;1.50;;;19.40;96.70;;;;;;5054193;28;20029;-78
2022/09/01 01:11:08;;;;;;;9.75;2.20;;;19.50;96.40;;;;;;5055290;28;20025;-78
2022/09/01 01:13:49;;;;;;;7.82;1.88;;;19.20;96.20;;;;;;5055198;28;20025;-78
2022/09/01 01:16:16;;;;;;;10.20;2.53;;;19.30;96.40;;;;;;5053692;28;20094;-79
2022/09/01 01:18:42;;;;;;;5.72;1.65;;;19.40;96.30;;;;;;5053694;28;20075;-79
2022/09/01 01:24:25;;;;;;;7.82;2.17;;;19.40;96.30;;;;;;5054911;28;20462;-78
2022/09/01 01:26:53;;;;;;;7.13;2.10;;;19.40;96.80;;;;;;5049721;28;20056;-78
2022/09/01 01:29:20;;;;;;;5.90;1.77;;;19.40;96.40;;;;;;5053410;28;20396;-79
2022/09/01 01:31:48;;;;;;;10.82;1.65;;;19.40;96.50;;;;;;5053342;28;20072;-78
2022/09/01 01:34:16;;;;;;;6.45;2.08;;;19.60;96.20;;;;;;5053163;28;20013;-79
2022/09/01 01:36:44;;;;;;;6.25;1.50;;;19.50;96.40;;;;;;5053133;28;20047;-79
2022/09/01 01:39:17;;;;;;;8.90;2.08;;;19.70;96.40;;;;;;5053636;28;20091;-79
2022/09/01 01:41:47;;;;;;;14.23;2.22;;;19.80;96.20;;;;;;5053551;28;20119;-79
2022/09/01 01:44:17;;;;;;;3.47;1.60;;;19.60;96.40;;;;;;5053246;28;20028;-79
2022/09/01 01:46:49;;;;;;;10.07;2.13;;;19.50;96.60;;;;;;5069980;28;20040;-79
2022/09/01 01:49:19;;;;;;;4.30;1.80;;;19.50;97.00;;;;;;5053199;28;20025;-78
2022/09/01 01:51:48;;;;;;;4.55;1.83;;;19.70;96.60;;;;;;5053145;28;20021;-79
2022/09/01 01:54:18;;;;;;;4.32;2.10;;;19.90;96.30;;;;;;5053037;28;20029;-79
2022/09/01 01:56:44;;;;;;;7.63;2.03;;;19.70;96.70;;;;;;5052955;28;20033;-79
2022/09/01 01:59:14;;;;;;;4.88;1.92;;;19.70;96.60;;;;;;5052957;28;20039;-79
2022/09/01 02:01:42;;;;;;;5.28;1.85;;;20.00;96.10;;;;;;5052878;28;20025;-79
2022/09/01 02:04:10;;;;;;;9.15;2.13;;;20.00;95.90;;;;;;5052773;28;20490;-79
2022/09/01 02:06:44;;;;;;;3.50;2.03;;;20.00;96.10;;;;;;5055842;28;20025;-79
2022/09/01 02:09:12;;;;;;;6.15;1.90;;;20.00;96.20;;;;;;5057471;28;20029;-79
2022/09/01 02:11:38;;;;;;;8.85;2.17;;;19.80;96.30;;;;;;5069488;28;20024;-79
2022/09/01 02:14:07;;;;;;;8.85;2.50;;;19.60;96.80;;;;;;5052429;28;20056;-79
2022/09/01 02:16:35;;;;;;;11.77;2.15;;;19.30;97.20;;;;;;5038701;28;20481;-79
2022/09/01 02:19:06;;;;;;;3.97;1.95;;;19.30;97.50;;;;;;5052455;28;20136;-79
2022/09/01 02:21:32;;;;;;;9.63;2.00;;;19.20;97.80;;;;;;5052458;28;20096;-79
2022/09/01 02:24:02;;;;;;;8.25;2.22;;;19.00;98.30;;;;;;5052624;28;20028;-78
2022/09/01 02:26:46;;;;;;;11.50;2.10;;;19.20;98.00;;;;;;5053914;28;20410;-78
2022/09/01 02:29:20;;;;;;;;;;;19.30;97.70;;;;;;5052893;28;20033;-77
2022/09/01 02:31:49;;;;;;;4.45;2.08;;;19.20;98.20;;;;;;5053502;28;20007;-78
2022/09/01 02:34:16;;;;;;;4.88;1.73;;;19.20;98.40;;;;;;5053350;28;20056;-77
2022/09/01 02:36:46;;;;;;;6.45;1.77;;;19.30;98.10;;;;;;5035540;28;20056;-77
2022/09/01 02:39:15;;;;;;;;;;;19.20;98.60;;;;;;5052870;28;20025;-77
2022/09/01 02:41:41;;;;;;;9.75;2.10;;;19.20;98.40;;;;;;5068814;28;19904;-77
2022/09/01 02:44:10;;;;;;;8.10;2.00;;;19.30;98.50;;;;;;5052317;28;20151;-77
2022/09/01 02:46:42;;;;;;;3.25;1.85;;;19.30;98.20;;;;;;5053145;28;20545;-77
2022/09/01 02:49:14;;;;;;;9.55;2.20;;;19.40;98.10;;;;;;5052295;28;20115;-77
2022/09/01 02:51:42;;;;;;;4.90;1.80;;;19.00;98.70;;;;;;5052283;28;20027;-77
2022/09/01 02:54:09;;;;;;;8.57;1.92;;;19.10;98.70;;;;;;5055303;28;20468;-77
2022/09/01 02:56:36;;;;;;;7.40;2.20;;;19.00;99.00;;;;;;5051874;28;20033;-78
2022/09/01 02:59:02;;;;;;;5.72;2.35;;;19.00;99.20;;;;;;5051820;28;20029;-77
2022/09/01 03:01:31;;;;;;;7.20;1.98;;;19.00;99.10;;;;;;5051623;28;20032;-77
2022/09/01 03:04:02;;;;;;;13.55;2.40;;;19.00;99.10;;;;;;5052813;28;20428;-77
2022/09/01 03:06:32;;;;;;;5.95;2.38;;;18.80;99.60;;;;;;5053287;28;20115;-77
2022/09/01 03:08:59;;;;;;;6.82;1.90;;;18.90;99.70;;;;;;5052855;28;20443;-77
2022/09/01 03:11:27;;;;;;;5.63;1.90;;;18.90;99.40;;;;;;5051987;28;20025;-77
2022/09/01 03:13:53;;;;;;;4.07;2.28;;;19.00;99.60;;;;;;5051419;28;20025;-77
2022/09/01 03:16:23;;;;;;;7.15;2.28;;;19.00;99.30;;;;;;5051310;28;20390;-77
2022/09/01 03:18:50;;;;;;;5.20;2.03;;;19.10;99.30;;;;;;5068439;28;20134;-78
2022/09/01 03:21:19;;;;;;;8.48;2.28;;;19.10;99.40;;;;;;5051583;28;20063;-77
2022/09/01 03:23:46;;;;;;;3.58;2.13;;;18.90;99.70;;;;;;5068071;28;20029;-78
2022/09/01 03:26:13;;;;;;;4.22;2.13;;;18.70;99.90;;;;;;5050546;28;20032;-77
2022/09/01 03:28:40;;;;;;;5.78;2.47;;;18.80;99.90;;;;;;5051655;28;20021;-77
2022/09/01 03:31:07;;;;;;;2.95;1.80;;;19.00;99.60;;;;;;5067993;28;20049;-77
2022/09/01 03:33:35;;;;;;;7.47;2.72;;;18.70;99.90;;;;;;5051328;28;20032;-77
2022/09/01 03:36:01;;;;;;;6.57;2.00;;;18.70;99.90;;;;;;5051166;28;20493;-77
2022/09/01 03:38:27;;;;;;;7.85;2.33;;;18.50;99.90;;;;;;5051193;28;20052;-78
2022/09/01 03:41:04;;;;;;;8.40;2.42;;;18.70;99.90;;;;;;5051811;28;20098;-77
2022/09/01 03:43:33;;;;;;;13.68;3.00;;;18.60;99.90;;;;;;5051220;28;20060;-78
2022/09/01 03:45:59;;;;;;;7.47;2.92;;;18.50;99.90;;;;;;5050838;28;20024;-77
2022/09/01 03:48:30;;;;;;;7.30;2.20;;;18.70;99.90;;;;;;5051167;28;20017;-77
2022/09/01 03:51:01;;;;;;;6.40;2.45;;;18.70;99.90;;;;;;5051488;28;20378;-77
2022/09/01 03:53:33;;;;;;;6.63;2.83;;;18.80;99.90;;;;;;5050998;28;20734;-77
2022/09/01 03:56:00;;;;;;;8.63;3.00;;;18.90;99.90;;;;;;5050941;28;20041;-77
2022/09/01 03:58:26;;;;;;;14.10;3.15;;;19.00;99.90;;;;;;5051111;28;20268;-77
2022/09/01 04:00:57;;;;;;;8.48;3.13;;;18.80;99.90;;;;;;5050835;28;20031;-79
2022/09/01 04:03:25;;;;;;;9.52;2.67;;;18.80;99.90;;;;;;5051434;28;20051;-79
2022/09/01 04:05:52;;;;;;;8.65;2.90;;;18.60;99.90;;;;;;5051005;28;20025;-78
2022/09/01 04:08:21;;;;;;;8.88;2.80;;;18.70;99.90;;;;;;5051018;28;20025;-79
2022/09/01 04:10:50;;;;;;;13.13;2.65;;;18.50;99.90;;;;;;5051005;28;20504;-78
2022/09/01 04:13:22;;;;;;;11.35;3.08;;;18.40;99.90;;;;;;5050791;28;20025;-78
2022/09/01 04:15:48;;;;;;;9.25;2.78;;;18.40;99.90;;;;;;5067358;28;20501;-78
2022/09/01 04:18:19;;;;;;;9.27;2.80;;;18.50;99.90;;;;;;5067466;28;20024;-78
2022/09/01 04:20:50;;;;;;;10.38;2.67;;;18.40;99.90;;;;;;5050831;28;20124;-77
2022/09/01 04:23:43;;;;;;;7.40;2.50;;;18.20;99.90;;;;;;5052247;28;20105;-77
2022/09/01 04:26:19;;;;;;;9.02;2.88;;;18.10;99.90;;;;;;5048779;28;20033;-77
2022/09/01 04:28:49;;;;;;;6.30;3.20;;;18.20;99.90;;;;;;5050618;28;20470;-77
2022/09/01 04:31:20;;;;;;;9.10;2.60;;;18.40;99.90;;;;;;5052090;28;20025;-77
2022/09/01 04:33:51;;;;;;;13.90;2.83;;;18.10;99.90;;;;;;5050769;28;20075;-77
2022/09/01 04:36:26;;;;;;;6.38;2.65;;;18.10;99.90;;;;;;5050699;28;20401;-78
2022/09/01 04:38:56;;;;;;;5.65;3.03;;;18.30;99.90;;;;;;5041976;28;20017;-77
2022/09/01 04:41:29;;;;;;;8.45;3.00;;;18.20;99.90;;;;;;5054615;28;20161;-77
2022/09/01 04:44:03;;;;;;;11.38;2.72;;;17.90;99.90;;;;;;5071025;28;20017;-78
2022/09/01 04:46:34;;;;;;;7.53;2.60;;;17.90;99.90;;;;;;5054528;28;20025;-77
2022/09/01 04:49:18;;;;;;;10.40;3.10;;;17.80;99.90;;;;;;5057270;28;20021;-77
2022/09/01 04:51:47;;;;;;;11.35;2.72;;;17.50;99.90;;;;;;5055040;28;20025;-77
2022/09/01 04:54:15;;;;;;;16.45;3.78;;;17.40;99.90;;;;;;5055601;28;20078;-77
2022/09/01 04:56:51;;;;;;;12.88;3.38;;;17.70;99.90;;;;;;5055025;28;20079;-76
2022/09/01 04:59:20;;;;;;;16.75;3.72;;;17.90;99.90;;;;;;5041575;28;20358;-76
2022/09/01 05:01:53;;;;;;;15.65;3.17;;;17.80;99.90;;;;;;5070782;28;20032;-77
2022/09/01 05:04:21;;;;;;;15.25;3.47;;;17.60;99.90;;;;;;5055201;28;20024;-76
2022/09/01 05:06:54;;;;;;;16.83;3.75;;;17.60;99.90;;;;;;5055646;28;20368;-77
2022/09/01 05:09:21;;;;;;;15.00;3.80;;;17.20;99.90;;;;;;5053908;28;20107;-77
2022/09/01 05:12:14;;;;;;;21.67;3.80;;;17.20;99.90;;;;;;5053747;28;20066;-76
2022/09/01 05:14:45;;;;;;;9.32;3.65;;;17.40;99.90;;;;;;5055117;28;20055;-76
2022/09/01 05:17:13;;;;;;;10.82;4.28;;;17.60;99.90;;;;;;5054121;28;20509;-76
2022/09/01 05:19:42;;;;;;;10.40;3.88;;;17.40;99.90;;;;;;5053949;28;20401;-77
2022/09/01 05:22:09;;;;;;;8.82;3.90;;;17.50;99.90;;;;;;5053777;28;20397;-77
2022/09/01 05:24:39;;;;;;;10.48;3.97;;;17.60;99.90;;;;;;5053863;28;20063;-77
2022/09/01 05:27:09;;;;;;;9.55;3.88;;;17.60;99.90;;;;;;5053357;28;20056;-76
2022/09/01 05:29:37;;;;;;;10.73;4.35;;;17.80;99.90;;;;;;5053577;28;20477;-76
2022/09/01 05:32:08;;;;;;;10.32;4.63;;;17.80;99.90;;;;;;5053501;28;20037;-77
2022/09/01 05:34:37;;;;;;;7.72;4.55;;;17.80;99.90;;;;;;5053424;28;20024;-77
2022/09/01 05:37:07;;;;;;;11.90;4.55;;;17.60;99.90;;;;;;5053223;28;20460;-77
2022/09/01 05:39:36;;;;;;;7.95;4.50;;;17.70;99.90;;;;;;5053587;28;20060;-76
2022/09/01 05:42:06;;;;;;;13.43;5.13;;;17.60;99.90;;;;;;5053072;28;20017;-76
2022/09/01 05:44:33;;;;;;;13.35;4.60;;;17.50;99.90;;;;;;5053413;28;20025;-77
2022/09/01 05:46:59;;;;;;;9.35;4.82;;;17.70;99.90;;;;;;5053027;28;20446;-76
2022/09/01 05:49:27;;;;;;;13.25;5.38;;;17.80;99.90;;;;;;5052877;28;20025;-77
2022/09/01 05:51:57;;;;;;;10.02;4.50;;;18.00;99.90;;;;;;5053132;28;20025;-77
2022/09/01 05:54:26;;;;;;;12.38;4.75;;;17.90;99.90;;;;;;5069853;28;20397;-77
2022/09/01 05:56:57;;;;;;;14.23;5.35;;;17.70;99.90;;;;;;5052574;28;20202;-79
2022/09/01 05:59:26;;;;;;;8.50;5.10;;;17.80;99.90;;;;;;5052878;28;20182;-77
2022/09/01 06:02:12;;;;;;;16.38;5.38;;;18.00;99.90;;;;;;5050432;28;20456;-77
2022/09/01 06:04:42;;;;;;;13.82;5.55;;;17.90;99.90;;;;;;5045691;28;20029;-79
2022/09/01 06:07:16;;;;;;;18.27;4.80;;;18.00;99.90;;;;;;5067452;28;20039;-79
2022/09/01 06:09:48;;;;;;;16.92;4.97;;;18.40;99.90;;;;;;5051734;28;20078;-79
2022/09/01 06:12:19;;;;;;;24.48;4.85;;;18.10;99.90;;;;;;5051123;28;20097;-79
2022/09/01 06:14:47;;;;;;;19.25;5.18;;;18.10;99.90;;;;;;5049179;28;20385;-79
2022/09/01 06:17:15;;;;;;;12.30;4.72;;;18.20;99.90;;;;;;5067121;28;20393;-79
2022/09/01 06:19:42;;;;;;;17.00;5.78;;;18.30;99.90;;;;;;5051505;28;20461;-80
2022/09/01 06:22:09;;;;;;;16.95;5.10;;;18.30;99.90;;;;;;5051456;28;20053;-79
2022/09/01 06:24:38;;;;;;;15.75;5.43;;;18.60;99.90;;;;;;5051397;28;20428;-79
2022/09/01 06:27:10;;;;;;;20.10;5.47;;;18.60;99.90;;;;;;5051676;28;20035;-80
2022/09/01 06:29:40;;;;;;;21.20;4.82;;;18.40;99.90;;;;;;5066463;28;20025;-80
2022/09/01 06:32:09;;;;;;;23.63;5.85;;;18.40;99.90;;;;;;5052755;28;20017;-79
2022/09/01 06:34:43;;;;;;;28.35;5.70;;;18.40;99.90;;;;;;5071421;28;20029;-80
2022/09/01 06:37:12;;;;;;;23.85;5.55;;;18.60;99.90;;;;;;5081545;28;20127;-78
2022/09/01 06:39:39;;;;;;;15.40;5.97;;;18.70;99.90;;;;;;5069074;28;20025;-79
2022/09/01 06:42:05;;;;;;;22.48;6.07;;;18.90;99.90;;;;;;5054353;28;20107;-79
2022/09/01 06:44:44;;;;;;;17.67;5.63;;;18.90;99.90;;;;;;5067988;28;20476;-80
2022/09/01 06:47:10;;;;;;;17.20;6.25;;;18.70;99.90;;;;;;5067792;28;20043;-79
2022/09/01 06:49:39;;;;;;;17.20;4.85;;;18.80;99.90;;;;;;5066363;28;20068;-79
2022/09/01 06:52:10;;;;;;;15.23;5.88;;;18.80;99.90;;;;;;5050922;28;20032;-80
2022/09/01 06:54:38;;;;;;;21.35;6.53;;;19.20;99.90;;;;;;5050758;28;20025;-79
2022/09/01 06:57:05;;;;;;;12.48;5.22;;;19.00;99.90;;;;;;5044284;28;20439;-79
2022/09/01 06:59:31;;;;;;;17.27;5.95;;;18.60;99.90;;;;;;5052459;28;20488;-79
2022/09/01 07:02:00;;;;;;;8.48;5.55;;;19.00;99.90;;;;;;5045917;28;20033;-78
2022/09/01 07:04:32;;;;;;;14.82;6.57;;;19.00;99.90;;;;;;5050734;28;20025;-79
2022/09/01 07:07:04;;;;;;;20.25;5.20;;;19.10;99.90;;;;;;5069498;28;20033;-79
2022/09/01 07:09:49;;;;;;;13.98;6.55;;;19.40;99.90;;;;;;5048826;28;20052;-80
2022/09/01 07:12:27;;;;;;;16.25;6.70;;;19.50;99.90;;;;;;5050845;28;20032;-80
2022/09/01 07:14:55;;;;;;;16.80;6.32;;;19.60;99.90;;;;;;5045495;28;20071;-81
2022/09/01 07:17:23;;;;;;;18.40;5.65;;;19.50;99.90;;;;;;5050979;28;20060;-80
2022/09/01 07:19:49;;;;;;;15.48;5.82;;;19.50;99.90;;;;;;5053307;28;20016;-80
2022/09/01 07:22:15;;;;;;;10.23;5.75;;;19.80;99.90;;;;;;5051334;28;20450;-76
2022/09/01 07:24:45;;;;;;;16.08;5.85;;;20.10;99.90;;;;;;5058719;28;20029;-86
2022/09/01 07:27:50;;;;;;;17.33;6.32;;;20.30;99.90;;;;;;5017968;28;20041;-85
2022/09/01 07:30:21;;;;;;;13.40;5.82;;;20.30;99.90;;;;;;5052798;28;20390;-85
2022/09/01 07:32:47;;;;;;;13.48;6.05;;;20.40;99.90;;;;;;5051654;28;20017;-86
2022/09/01 07:35:18;;;;;;;14.80;5.32;;;20.30;99.90;;;;;;5051679;28;20493;-86
2022/09/01 07:37:47;;;;;;;17.00;6.20;;;20.40;99.90;;;;;;5053189;28;20021;-87
2022/09/01 07:40:17;;;;;;;9.88;5.78;;;20.90;99.30;;;;;;5053326;28;20623;-86
2022/09/01 07:42:54;;;;;;;17.08;5.60;;;20.90;99.10;;;;;;5061065;28;20481;-86
2022/09/01 07:45:44;;;;;;;18.48;5.50;;;20.80;99.20;;;;;;5053798;28;20142;-86
2022/09/01 07:48:09;;;;;;;15.73;5.63;;;20.70;99.30;;;;;;5054246;28;20790;-85
2022/09/01 07:50:46;;;;;;;14.07;5.50;;;21.00;99.40;;;;;;5052337;28;20078;-85
2022/09/01 07:53:24;;;;;;;11.32;5.20;;;21.30;98.40;;;;;;5052085;28;20036;-85
2022/09/01 07:55:53;;;;;;;20.27;6.13;;;21.50;98.50;;;;;;5038052;28;20029;-86
2022/09/01 07:58:22;;;;;;;14.85;5.35;;;21.80;97.80;;;;;;5052239;28;20055;-86
2022/09/01 08:00:53;;;;;;;20.30;6.53;;;21.90;97.50;;;;;;5052277;28;20017;-85
2022/09/01 08:03:22;;;;;;;26.55;6.22;;;21.70;98.00;;;;;;5068998;28;20128;-86
2022/09/01 08:05:52;;;;;;;16.40;5.90;;;21.80;97.90;;;;;;5053372;28;20079;-86
2022/09/01 08:08:19;;;;;;;26.25;6.22;;;21.90;97.60;;;;;;5053731;28;20029;-84
2022/09/01 08:10:47;;;;;;;12.50;5.43;;;22.30;96.90;;;;;;5036989;28;20032;-85
2022/09/01 08:13:15;;;;;;;11.80;6.10;;;22.50;96.70;;;;;;5056575;28;20039;-86
2022/09/01 08:15:41;;;;;;;13.63;5.95;;;22.30;96.30;;;;;;5056761;28;20021;-83
2022/09/01 08:18:08;;;;;;;16.65;6.30;;;22.40;96.60;;;;;;5057398;28;20523;-84
2022/09/01 08:20:38;;;;;;;18.15;6.70;;;22.40;96.80;;;;;;5055917;28;20047;-83
2022/09/01 08:23:26;;;;;;;20.80;5.90;;;22.20;96.40;;;;;;5060830;28;20052;-82
2022/09/01 08:25:52;;;;;;;11.88;5.50;;;21.70;97.80;;;;;;5074338;28;20030;-86
2022/09/01 08:28:19;;;;;;;15.07;5.75;;;22.20;97.90;;;;;;5056673;28;20025;-82
2022/09/01 08:30:47;;;;;;;20.85;6.18;;;22.90;96.60;;;;;;5058360;28;20032;-85
2022/09/01 08:33:14;;;;;;;17.73;5.88;;;23.00;96.10;;;;;;5056146;28;20400;-84
2022/09/01 08:35:47;;;;;;;10.50;6.00;;;22.90;96.20;;;;;;5055808;28;20056;-83
2022/09/01 08:38:14;;;;;;;15.35;6.03;;;23.10;96.00;;;;;;5055055;28;20025;-86
2022/09/01 08:40:48;;;;;;;16.90;5.97;;;23.40;95.90;;;;;;5054945;28;20120;-84
2022/09/01 08:43:30;;;;;;;22.23;6.20;;;23.30;95.80;;;;;;5054783;28;20021;-84
2022/09/01 08:46:12;;;;;;;17.75;6.90;;;23.70;95.10;;;;;;5055359;28;20461;-85
2022/09/01 08:48:47;;;;;;;18.98;6.80;;;23.90;94.70;;;;;;5055526;28;20115;-82
2022/09/01 08:51:38;;;;;;;18.00;6.43;;;24.00;94.50;;;;;;5071835;28;20386;-85
2022/09/01 08:54:20;;;;;;;16.27;6.05;;;23.70;94.80;;;;;;5054919;28;20536;-81
2022/09/01 08:56:56;;;;;;;14.80;6.32;;;23.70;94.80;;;;;;5054422;28;20041;-83
2022/09/01 08:59:42;;;;;;;18.63;6.57;;;23.90;94.30;;;;;;5055868;28;20037;-83
2022/09/01 09:02:55;;;;;;;15.93;6.55;;;23.60;94.70;;;;;;5055027;28;20033;-81
2022/09/01 09:05:33;;;;;;;25.65;6.95;;;23.20;94.80;;;;;;5055896;28;20041;-82
2022/09/01 09:08:37;;;;;;;16.50;6.57;;;23.40;95.20;;;;;;5055558;28;20032;-84
2022/09/01 09:11:21;;;;;;;11.77;6.45;;;23.70;95.00;;;;;;5052571;28;20522;-85
2022/09/01 09:14:10;;;;;;;16.48;6.68;;;24.20;94.40;;;;;;5071244;28;20425;-82
2022/09/01 09:16:52;;;;;;;18.15;7.07;;;24.00;94.30;;;;;;5055187;28;20094;-83
2022/09/01 09:19:32;;;;;;;17.63;6.50;;;24.00;94.30;;;;;;5053472;28;20028;-82
2022/09/01 09:22:01;;;;;;;20.88;6.25;;;24.10;94.30;;;;;;5055271;28;20029;-84
2022/09/01 09:24:48;;;;;;;24.23;6.60;;;24.60;93.90;;;;;;5052709;28;20462;-84
2022/09/01 09:27:23;;;;;;;13.18;6.18;;;24.80;93.60;;;;;;5055339;28;20108;-82
2022/09/01 09:29:58;;;;;;;24.25;7.65;;;25.00;93.60;;;;;;5041132;28;20500;-82
2022/09/01 09:32:42;;;;;;;14.75;6.70;;;24.90;93.20;;;;;;5055095;28;20029;-81
2022/09/01 09:35:38;;;;;;;15.60;6.63;;;25.30;92.90;;;;;;5068091;28;20037;-82
2022/09/01 09:38:27;;;;;;;16.67;6.28;;;25.50;92.70;;;;;;5053851;28;20473;-82
2022/09/01 09:41:05;;;;;;;17.40;6.10;;;25.30;92.90;;;;;;5054771;28;20039;-84
2022/09/01 09:43:35;;;;;;;15.70;5.20;;;25.50;92.90;;;;;;5054488;28;20499;-81
2022/09/01 09:46:37;;;;;;;24.13;6.10;;;25.70;92.20;;;;;;5054886;28;20104;-81
2022/09/01 09:49:16;;;;;;;12.13;5.60;;;26.10;91.80;;;;;;5053492;28;20064;-83
2022/09/01 09:51:48;;;;;;;18.65;5.20;;;26.20;91.30;;;;;;5054176;28;20033;-81
2022/09/01 09:54:16;;;;;;;;;;;25.80;91.70;;;;;;5055071;28;20029;-82
2022/09/01 09:56:45;;;;;;;21.15;6.32;;;26.30;91.50;;;;;;5055387;28;19939;-82
2022/09/01 09:59:31;;;;;;;14.38;5.78;;;25.50;91.70;;;;;;5054266;28;20036;-82
2022/09/01 10:01:59;;;;;;;10.27;4.82;;;25.50;92.30;;;;;;5054947;28;20470;-84
2022/09/01 10:04:34;;;;;;;11.85;4.75;;;25.70;92.00;;;;;;5055048;28;20485;-84
2022/09/01 10:07:20;;;;;;;9.65;4.03;;;25.80;92.00;;;;;;5053063;28;20033;-84
2022/09/01 10:09:48;;;;;;;9.85;3.80;;;26.50;91.40;;;;;;5053842;28;20032;-78
2022/09/01 10:12:14;;;;;;;11.02;3.13;;;26.20;90.70;;;;;;5050917;28;20028;-77
2022/09/01 10:14:54;;;;;;;11.27;3.85;;;26.10;91.20;;;;;;5054187;28;20028;-78
2022/09/01 10:17:34;;;;;;;7.10;3.60;;;26.30;91.20;;;;;;5047725;28;20036;-78
2022/09/01 10:20:08;;;;;;;13.80;2.90;;;26.90;90.40;;;;;;5053972;28;20021;-79
2022/09/01 10:22:36;;;;;;;9.05;2.75;;;26.90;90.30;;;;;;5041684;28;20351;-79
2022/09/01 10:25:03;;;;;;;6.78;2.33;;;27.10;89.20;;;;;;5052531;28;20045;-78
2022/09/01 10:27:35;;;;;;;4.07;2.15;;;27.20;89.00;;;;;;5052475;28;20028;-78
2022/09/01 10:30:12;;;;;;;8.30;2.33;;;27.10;87.80;;;;;;5050517;28;20448;-78
2022/09/01 10:32:51;;;;;;;15.07;2.63;;;27.50;87.60;;;;;;5047914;28;20477;-78
2022/09/01 10:35:33;;;;;;;7.43;2.20;;;27.70;87.10;;;;;;5052493;28;20548;-78
2022/09/01 10:38:08;;;;;;;3.40;1.90;;;27.10;85.90;;;;;;5050515;28;20032;-78
2022/09/01 10:40:39;;;;;;;8.85;1.95;;;26.90;86.90;;;;;;5043091;28;20025;-78
2022/09/01 10:43:32;;;;;;;4.93;1.42;;;27.30;87.70;;;;;;5050603;28;20057;-78
2022/09/01 10:45:58;;;;;;;15.20;1.92;;;28.20;85.30;;;;;;5064224;28;20481;-78
2022/09/01 10:48:28;;;;;;;7.72;1.60;;;28.40;83.40;;;;;;5051663;28;20102;-79
2022/09/01 10:51:14;;;;;;;5.05;1.65;;;28.60;83.50;;;;;;5063961;28;20482;-78
2022/09/01 10:53:42;;;;;;;11.23;2.35;;;28.80;82.90;;;;;;5064615;28;20048;-79
2022/09/01 10:56:17;;;;;;;8.60;2.92;;;28.60;82.10;;;;;;5050276;28;20501;-78
2022/09/01 10:59:04;;;;;;;9.98;2.47;;;28.30;83.10;;;;;;5052295;28;20028;-78
2022/09/01 11:01:39;;;;;;;6.78;2.42;;;28.60;82.00;;;;;;5044352;28;20044;-78
2022/09/01 11:04:17;;;;;;;11.63;1.90;;;28.50;81.90;;;;;;5051663;28;20059;-77
2022/09/01 11:06:54;;;;;;;5.97;1.73;;;29.00;80.70;;;;;;5046382;28;20017;-78
2022/09/01 11:09:22;;;;;;;6.32;1.98;;;28.80;79.80;;;;;;5052081;28;20025;-78
2022/09/01 11:12:01;;;;;;;11.65;1.92;;;28.20;80.10;;;;;;5052123;28;20024;-78
2022/09/01 11:14:34;;;;;;;7.55;1.45;;;28.70;79.40;;;;;;5051684;28;20169;-78
2022/09/01 11:17:20;;;;;;;7.00;1.55;;;29.40;78.30;;;;;;5051633;28;20086;-78
2022/09/01 11:20:09;;;;;;;5.57;1.42;;;29.30;77.70;;;;;;5051719;28;20540;-78
2022/09/01 11:22:42;;;;;;;4.97;1.75;;;29.70;77.80;;;;;;5046760;28;20385;-78
2022/09/01 11:25:32;;;;;;;10.23;1.60;;;29.70;76.50;;;;;;5051680;28;20100;-79
2022/09/01 11:28:27;;;;;;;6.72;1.60;;;29.70;76.60;;;;;;5042379;28;20040;-79
2022/09/01 11:31:01;;;;;;;12.32;1.48;;;29.60;76.90;;;;;;5039382;28;20052;-78
2022/09/01 11:34:04;;;;;;;4.57;1.92;;;29.30;76.70;;;;;;5051723;28;20094;-79
2022/09/01 11:36:46;;;;;;;6.10;1.38;;;29.90;76.70;;;;;;5046681;28;20053;-78
2022/09/01 11:39:25;;;;;;;7.80;1.80;;;29.50;76.80;;;;;;5050551;28;20033;-78
2022/09/01 11:42:18;;;;;;;12.07;1.92;;;29.90;76.70;;;;;;5051591;28;20516;-78
2022/09/01 11:45:11;;;;;;;2.83;1.40;;;30.60;75.80;;;;;;5044443;28;20029;-78
2022/09/01 11:47:39;;;;;;;10.45;1.80;;;30.60;75.10;;;;;;5043909;28;20496;-78
2022/09/01 11:50:17;;;;;;;7.13;1.60;;;30.30;75.30;;;;;;5051550;28;20045;-78
2022/09/01 11:52:58;;;;;;;6.47;1.48;;;29.80;75.60;;;;;;5044051;28;20029;-79
2022/09/01 11:55:45;;;;;;;3.03;1.30;;;30.40;75.10;;;;;;5047638;28;21443;-74
2022/09/01 11:58:29;;;;;;;3.22;1.40;;;30.20;74.60;;;;;;5049919;28;20119;-79
2022/09/01 12:01:21;;;;;;;3.40;1.30;;;30.40;73.90;;;;;;5047513;28;20029;-74
2022/09/01 12:03:50;;;;;;;4.32;1.50;;;31.00;73.60;;;;;;5050057;28;20033;-78
2022/09/01 12:06:24;;;;;;;4.07;1.50;;;31.20;72.60;;;;;;5050455;28;20083;-78
2022/09/01 12:08:58;;;;;;;6.78;2.35;;;30.60;72.90;;;;;;5050262;28;20032;-78
2022/09/01 12:11:29;;;;;;;8.65;1.70;;;30.30;73.40;;;;;;5052082;28;20029;-78
2022/09/01 12:14:19;;;;;;;10.63;1.73;;;30.30;72.70;;;;;;5050570;28;20032;-78
2022/09/01 12:16:56;;;;;;;7.13;1.92;;;29.70;72.80;;;;;;5042658;28;20155;-78
2022/09/01 12:19:26;;;;;;;13.65;1.77;;;30.50;73.20;;;;;;5052205;28;20021;-78
2022/09/01 12:22:01;;;;;;;12.38;1.90;;;30.60;72.80;;;;;;5052124;28;20029;-78
2022/09/01 12:24:34;;;;;;;8.38;2.42;;;31.00;72.30;;;;;;5051975;28;20379;-78
2022/09/01 12:27:01;;;;;;;6.22;1.58;;;31.10;72.90;;;;;;5051038;28;20040;-79
2022/09/01 12:29:28;;;;;;;5.03;1.58;;;31.60;72.40;;;;;;5050327;28;20461;-79
2022/09/01 12:31:54;;;;;;;5.82;1.90;;;32.80;71.80;;;;;;5051756;28;20036;-79
2022/09/01 12:34:46;;;;;;;3.70;1.70;;;32.30;70.50;;;;;;5051769;28;20094;-79
2022/09/01 12:37:15;;;;;;;2.78;1.60;;;33.30;70.90;;;;;;5052151;28;20040;-79
2022/09/01 12:39:44;;;;;;;4.72;1.77;;;33.30;70.20;;;;;;5051981;28;20393;-79
2022/09/01 12:42:19;;;;;;;5.25;1.50;;;31.90;70.30;;;;;;5051616;28;20074;-79
2022/09/01 12:44:54;;;;;;;4.03;1.52;;;32.20;70.30;;;;;;5051602;28;20036;-78
2022/09/01 12:47:32;;;;;;;6.38;1.80;;;31.40;70.80;;;;;;5052205;28;20029;-78
2022/09/01 12:50:10;;;;;;;3.53;1.85;;;31.80;70.90;;;;;;5052209;28;20033;-79
2022/09/01 12:52:45;;;;;;;9.50;2.00;;;34.00;69.70;;;;;;5067417;28;20029;-79
2022/09/01 12:55:15;;;;;;;4.13;1.80;;;35.00;67.80;;;;;;5050089;28;20390;-79
2022/09/01 12:57:54;;;;;;;4.63;2.22;;;33.90;67.10;;;;;;5050487;28;20051;-78
2022/09/01 13:00:47;;;;;;;3.30;1.70;;;33.40;68.10;;;;;;5053948;28;20060;-80
2022/09/01 13:03:16;;;;;;;5.43;1.50;;;33.70;66.80;;;;;;5047351;28;20095;-79
2022/09/01 13:05:45;;;;;;;7.90;1.75;;;34.00;67.20;;;;;;5055226;28;20033;-78
2022/09/01 13:08:16;;;;;;;7.38;2.15;;;33.80;66.60;;;;;;5055289;28;20036;-81
2022/09/01 13:10:48;;;;;;;5.93;1.63;;;34.10;67.20;;;;;;5054979;28;20111;-80
2022/09/01 13:13:15;;;;;;;7.88;1.88;;;34.00;66.30;;;;;;5057021;28;20021;-80
2022/09/01 13:15:46;;;;;;;4.82;1.75;;;35.70;66.30;;;;;;5055019;28;20025;-78